createdAt,value
2023-04-19T00:02:29.172Z,22.77
2023-04-19T00:05:32.986Z,23.90
2023-04-19T00:08:36.091Z,23.80
2023-04-19T00:11:40.557Z,23.40
2023-04-19T00:14:43.605Z,21.63
2023-04-19T00:17:46.720Z,22.80
2023-04-19T00:20:49.938Z,20.90
2023-04-19T00:23:54.205Z,21.47
2023-04-19T00:26:59.094Z,21.03
2023-04-19T00:30:02.915Z,21.30
2023-04-19T00:33:06.070Z,21.77
2023-04-19T00:36:10.731Z,21.47
2023-04-19T00:39:13.968Z,20.83
2023-04-19T00:42:18.434Z,21.77
2023-04-19T00:45:21.609Z,21.37
2023-04-19T00:48:25.337Z,21.37
2023-04-19T00:51:28.496Z,20.03
2023-04-19T00:54:31.826Z,19.83
2023-04-19T00:57:38.367Z,20.47
2023-04-19T01:00:41.594Z,19.63
2023-04-19T01:03:44.945Z,19.57
2023-04-19T01:06:48.256Z,20.40
2023-04-19T01:09:52.410Z,19.07
2023-04-19T01:12:56.830Z,19.83
2023-04-19T01:16:00.084Z,20.70
2023-04-19T01:19:03.267Z,19.30
2023-04-19T01:22:06.635Z,19.27
2023-04-19T01:25:11.689Z,18.07
2023-04-19T01:28:14.941Z,19.37
2023-04-19T01:31:18.110Z,18.30
2023-04-19T01:34:23.257Z,18.23
2023-04-19T01:37:26.470Z,18.20
2023-04-19T01:40:31.000Z,17.60
2023-04-19T01:43:34.064Z,17.80
2023-04-19T01:46:38.944Z,18.00
2023-04-19T01:49:42.100Z,16.87
2023-04-19T01:52:45.226Z,16.63
2023-04-19T01:55:49.653Z,18.80
2023-04-19T01:58:52.764Z,16.43
2023-04-19T02:01:55.885Z,17.10
2023-04-19T02:04:59.179Z,16.70
2023-04-19T02:08:02.805Z,16.13
2023-04-19T02:11:10.058Z,16.00
2023-04-19T02:14:13.432Z,15.73
2023-04-19T02:17:16.928Z,14.70
2023-04-19T02:20:20.173Z,15.20
2023-04-19T02:23:23.326Z,15.10
2023-04-19T02:26:27.857Z,14.50
2023-04-19T02:29:31.142Z,15.47
2023-04-19T02:32:34.227Z,14.50
2023-04-19T02:35:37.562Z,14.50
2023-04-19T02:38:40.825Z,13.63
2023-04-19T02:41:45.316Z,12.07
2023-04-19T02:44:48.354Z,12.47
2023-04-19T02:47:51.543Z,11.77
2023-04-19T02:50:54.581Z,12.30
2023-04-19T02:53:57.720Z,11.77
2023-04-19T02:57:02.189Z,12.40
2023-04-19T03:00:06.582Z,11.77
2023-04-19T03:03:09.862Z,11.50
2023-04-19T03:06:13.133Z,10.20
2023-04-19T03:09:16.221Z,8.80
2023-04-19T03:12:20.630Z,5.87
2023-04-19T03:15:23.614Z,6.10
2023-04-19T03:18:26.747Z,7.10
2023-04-19T03:21:29.806Z,5.43
2023-04-19T03:24:33.979Z,3.83
2023-04-19T03:27:39.462Z,6.43
2023-04-19T03:30:42.668Z,5.80
2023-04-19T03:33:45.680Z,3.43
2023-04-19T03:36:48.736Z,3.77
2023-04-19T03:39:51.779Z,3.80
2023-04-19T03:42:56.236Z,3.07
2023-04-19T03:45:59.272Z,3.20
2023-04-19T03:49:02.264Z,4.60
2023-04-19T03:52:05.696Z,4.43
2023-04-19T03:55:10.172Z,4.00
2023-04-19T03:58:14.678Z,3.20
2023-04-19T04:01:21.411Z,3.33
2023-04-19T04:04:24.727Z,3.00
2023-04-19T04:07:28.019Z,3.47
2023-04-19T04:10:31.114Z,3.90
2023-04-19T04:13:35.583Z,3.23
2023-04-19T04:16:38.638Z,3.23
2023-04-19T04:19:41.680Z,3.50
2023-04-19T04:22:46.185Z,3.50
2023-04-19T04:25:49.307Z,5.00
2023-04-19T04:28:53.881Z,3.57
2023-04-19T04:31:57.722Z,3.73
2023-04-19T04:35:00.835Z,2.60
2023-04-19T04:38:17.512Z,2.30
2023-04-19T04:41:22.749Z,2.80
2023-04-19T04:47:33.442Z,2.53
2023-04-19T04:50:36.648Z,2.80
2023-04-19T04:53:40.693Z,3.00
2023-04-19T04:56:44.042Z,2.17
2023-04-19T04:59:48.551Z,2.80
2023-04-19T05:02:51.671Z,2.53
2023-04-19T05:05:54.811Z,2.93
2023-04-19T05:08:58.017Z,3.10
2023-04-19T05:12:01.922Z,4.60
2023-04-19T05:15:07.721Z,2.30
2023-04-19T05:18:10.858Z,3.40
2023-04-19T05:21:13.956Z,2.80
2023-04-19T05:24:17.847Z,3.00
2023-04-19T05:27:21.084Z,3.47
2023-04-19T05:30:26.117Z,3.27
2023-04-19T05:33:29.506Z,4.87
2023-04-19T05:36:32.904Z,3.83
2023-04-19T05:39:36.108Z,4.80
2023-04-19T05:42:39.855Z,5.17
2023-04-19T05:45:44.362Z,4.47
2023-04-19T05:48:47.584Z,3.80
2023-04-19T05:51:50.687Z,4.20
2023-04-19T05:54:53.804Z,4.70
2023-04-19T05:57:56.942Z,4.70
2023-04-19T06:01:02.053Z,5.60
2023-04-19T06:04:05.754Z,5.13
2023-04-19T06:07:21.689Z,5.73
2023-04-19T06:10:44.507Z,5.40
2023-04-19T06:13:55.161Z,6.40
2023-04-19T06:16:59.544Z,7.67
2023-04-19T06:20:02.546Z,5.70
2023-04-19T06:23:05.812Z,6.13
2023-04-19T06:26:08.842Z,5.03
2023-04-19T06:29:11.874Z,5.47
2023-04-19T06:32:16.303Z,4.80
2023-04-19T06:35:19.769Z,5.13
2023-04-19T06:38:22.775Z,5.87
2023-04-19T06:41:26.097Z,4.80
2023-04-19T06:44:29.226Z,4.80
2023-04-19T06:47:35.401Z,4.83
2023-04-19T06:50:38.780Z,4.33
2023-04-19T06:53:41.830Z,5.43
2023-04-19T06:56:46.952Z,5.90
2023-04-19T06:59:50.040Z,6.57
2023-04-19T07:02:54.691Z,6.43
2023-04-19T07:05:57.817Z,6.70
2023-04-19T07:09:00.802Z,6.60
2023-04-19T07:12:03.906Z,6.77
2023-04-19T07:15:07.696Z,7.33
2023-04-19T07:18:15.024Z,9.00
2023-04-19T07:21:18.063Z,10.50
2023-04-19T07:24:22.109Z,11.07
2023-04-19T07:27:25.171Z,12.10
2023-04-19T07:30:28.197Z,14.10
2023-04-19T07:33:32.766Z,13.67
2023-04-19T07:36:37.134Z,15.97
2023-04-19T07:39:40.450Z,14.47
2023-04-19T07:42:44.522Z,14.90
2023-04-19T07:45:47.742Z,17.63
2023-04-19T07:48:52.215Z,17.63
2023-04-19T07:51:55.301Z,18.70
2023-04-19T07:54:58.340Z,18.50
2023-04-19T07:58:02.262Z,18.70
2023-04-19T08:01:05.385Z,22.77
2023-04-19T08:04:10.288Z,22.33
2023-04-19T08:07:13.606Z,24.00
2023-04-19T08:10:16.945Z,22.80
2023-04-19T08:13:20.003Z,22.03
2023-04-19T08:17:01.468Z,21.23
2023-04-19T08:19:47.660Z,23.43
2023-04-19T08:22:50.795Z,19.70
2023-04-19T08:25:53.866Z,20.20
2023-04-19T08:28:56.998Z,19.80
2023-04-19T08:32:00.303Z,19.70
2023-04-19T08:35:04.934Z,21.17
2023-04-19T08:38:08.010Z,22.63
2023-04-19T08:41:13.232Z,25.13
2023-04-19T08:44:32.741Z,27.63
2023-04-19T08:51:00.717Z,23.57
2023-04-19T08:54:08.759Z,26.03
2023-04-19T08:57:12.554Z,25.10
2023-04-19T09:00:16.464Z,26.50
2023-04-19T09:03:19.757Z,25.43
2023-04-19T09:06:24.623Z,24.60
2023-04-19T09:09:37.019Z,25.47
2023-04-19T09:12:42.735Z,25.20
2023-04-19T09:15:46.033Z,23.40
2023-04-19T09:19:08.184Z,24.53
2023-04-19T09:22:20.167Z,22.97
2023-04-19T09:28:33.137Z,22.43
2023-04-19T09:31:51.024Z,22.50
2023-04-19T09:34:56.740Z,21.70
2023-04-19T09:41:09.060Z,22.10
2023-04-19T09:47:25.425Z,21.97
2023-04-19T09:50:28.869Z,23.70
2023-04-19T09:53:35.027Z,22.70
2023-04-19T09:56:38.980Z,20.63
2023-04-19T09:59:42.111Z,22.23
2023-04-19T10:02:48.785Z,23.00
2023-04-19T10:05:53.336Z,21.13
2023-04-19T10:08:58.176Z,20.10
2023-04-19T10:12:11.690Z,21.20
2023-04-19T10:15:24.988Z,19.43
2023-04-19T10:18:28.435Z,20.27
2023-04-19T10:21:32.895Z,18.40
2023-04-19T10:24:37.343Z,19.23
2023-04-19T10:27:42.154Z,19.00
2023-04-19T10:30:55.902Z,17.57
2023-04-19T10:34:00.474Z,18.80
2023-04-19T10:37:05.752Z,18.27
2023-04-19T10:40:12.782Z,18.80
2023-04-19T10:43:19.313Z,17.67
2023-04-19T10:46:38.031Z,18.87
2023-04-19T10:49:46.476Z,17.67
2023-04-19T10:52:49.570Z,18.57
2023-04-19T10:55:54.033Z,19.13
2023-04-19T10:59:22.158Z,17.93
2023-04-19T11:02:29.496Z,17.93
2023-04-19T11:06:07.523Z,15.53
2023-04-19T11:09:11.242Z,16.97
2023-04-19T11:12:16.855Z,17.00
2023-04-19T11:15:23.319Z,15.93
2023-04-19T11:18:31.175Z,16.87
2023-04-19T11:21:34.364Z,16.40
2023-04-19T11:24:37.420Z,16.23
2023-04-19T11:27:43.028Z,17.00
2023-04-19T11:30:46.684Z,18.20
2023-04-19T11:33:49.817Z,16.93
2023-04-19T11:36:53.918Z,16.43
2023-04-19T11:39:56.966Z,16.97
2023-04-19T11:43:03.417Z,16.30
2023-04-19T11:46:07.576Z,18.43
2023-04-19T11:49:10.672Z,20.63
2023-04-19T11:52:13.745Z,21.80
2023-04-19T11:55:20.375Z,21.00
2023-04-19T11:58:29.610Z,21.00
2023-04-19T12:01:32.877Z,23.23
2023-04-19T12:04:36.288Z,18.90
2023-04-19T12:07:58.248Z,18.50
2023-04-19T12:11:03.208Z,18.67
2023-04-19T12:14:11.073Z,19.57
2023-04-19T12:17:15.992Z,18.60
2023-04-19T12:20:30.665Z,18.80
2023-04-19T12:23:33.699Z,18.23
2023-04-19T12:26:37.708Z,17.43
2023-04-19T12:29:42.216Z,18.00
2023-04-19T12:32:45.335Z,17.37
2023-04-19T12:35:48.586Z,17.13
2023-04-19T12:38:51.841Z,17.53
2023-04-19T12:41:54.932Z,16.10
2023-04-19T12:44:59.446Z,18.10
2023-04-19T12:48:02.632Z,17.33
2023-04-19T12:51:05.986Z,17.77
2023-04-19T12:54:09.102Z,17.50
2023-04-19T12:57:12.169Z,17.03
2023-04-19T13:00:17.502Z,16.83
2023-04-19T13:03:20.709Z,15.93
2023-04-19T13:06:23.796Z,16.43
2023-04-19T13:09:28.800Z,16.73
2023-04-19T13:12:31.829Z,16.30
2023-04-19T13:15:36.295Z,16.17
2023-04-19T13:18:39.338Z,15.77
2023-04-19T13:21:43.277Z,14.83
2023-04-19T13:24:46.297Z,15.57
2023-04-19T13:27:49.320Z,14.80
2023-04-19T13:30:53.788Z,15.10
2023-04-19T13:33:56.897Z,15.03
2023-04-19T13:36:59.985Z,14.17
2023-04-19T13:40:17.424Z,14.00
2023-04-19T13:43:22.494Z,14.67
2023-04-19T13:46:26.984Z,13.57
2023-04-19T13:49:30.183Z,14.07
2023-04-19T13:52:33.414Z,13.83
2023-04-19T13:55:36.646Z,13.10
2023-04-19T13:58:39.814Z,13.47
2023-04-19T14:01:44.340Z,13.07
2023-04-19T14:04:47.422Z,13.30
2023-04-19T14:07:50.499Z,13.20
2023-04-19T14:10:53.573Z,12.80
2023-04-19T14:13:57.750Z,12.37
2023-04-19T14:17:02.299Z,13.27
2023-04-19T14:20:07.520Z,13.37
2023-04-19T14:23:10.812Z,12.03
2023-04-19T14:26:13.828Z,12.00
2023-04-19T14:29:17.087Z,11.80
2023-04-19T14:32:26.493Z,12.00
2023-04-19T14:35:30.792Z,12.10
2023-04-19T14:38:34.167Z,11.63
2023-04-19T14:41:37.232Z,12.77
2023-04-19T14:44:40.449Z,11.43
2023-04-19T14:47:44.996Z,12.43
2023-04-19T14:50:48.029Z,11.33
2023-04-19T14:53:51.076Z,12.00
2023-04-19T14:56:54.182Z,11.77
2023-04-19T14:59:58.486Z,10.90
2023-04-19T15:03:03.147Z,6.47
2023-04-19T15:06:06.732Z,6.03
2023-04-19T15:09:09.860Z,4.97
2023-04-19T15:12:12.955Z,3.73
2023-04-19T15:15:16.024Z,4.50
2023-04-19T15:18:20.433Z,17.10
2023-04-19T15:21:24.783Z,16.33
2023-04-19T15:24:28.060Z,23.30
2023-04-19T15:27:31.436Z,21.50
2023-04-19T15:30:34.541Z,22.40
2023-04-19T15:33:38.992Z,19.40
2023-04-19T15:36:42.009Z,40.90
2023-04-19T15:39:45.020Z,42.67
2023-04-19T15:42:48.171Z,35.03
2023-04-19T15:45:51.534Z,28.33
2023-04-19T15:48:56.169Z,21.57
2023-04-19T15:51:59.179Z,17.80
2023-04-19T15:55:02.211Z,18.30
2023-04-19T15:58:06.424Z,13.50
2023-04-19T16:01:12.657Z,10.80
2023-04-19T16:04:17.355Z,8.23
2023-04-19T16:07:20.664Z,7.00
2023-04-19T16:10:23.865Z,7.17
2023-04-19T16:13:26.976Z,7.80
2023-04-19T16:16:33.133Z,7.90
2023-04-19T16:19:37.845Z,6.40
2023-04-19T16:22:41.251Z,6.20
2023-04-19T16:25:44.289Z,5.10
2023-04-19T16:28:47.865Z,5.67
2023-04-19T16:31:52.260Z,5.67
2023-04-19T16:34:56.872Z,4.10
2023-04-19T16:38:00.706Z,5.27
2023-04-19T16:41:05.695Z,4.63
2023-04-19T16:44:08.914Z,4.87
2023-04-19T16:47:12.181Z,4.90
2023-04-19T16:50:16.912Z,5.20
2023-04-19T16:53:19.961Z,4.40
2023-04-19T16:56:24.298Z,4.40
2023-04-19T16:59:27.331Z,5.53
2023-04-19T17:02:30.600Z,5.23
2023-04-19T17:05:35.187Z,5.50
2023-04-19T17:08:38.837Z,5.10
2023-04-19T17:11:41.810Z,5.30
2023-04-19T17:14:44.846Z,5.60
2023-04-19T17:17:48.009Z,5.47
2023-04-19T17:20:52.515Z,5.50
2023-04-19T17:23:55.562Z,5.87
2023-04-19T17:26:58.587Z,5.13
2023-04-19T17:30:01.690Z,5.63
2023-04-19T17:33:04.880Z,5.60
2023-04-19T17:36:10.170Z,8.00
2023-04-19T17:39:13.360Z,6.97
2023-04-19T17:42:16.428Z,11.50
2023-04-19T17:45:19.543Z,8.63
2023-04-19T17:48:22.580Z,8.53
2023-04-19T17:51:26.997Z,7.63
2023-04-19T17:54:30.110Z,7.77
2023-04-19T17:57:34.161Z,6.97
2023-04-19T18:00:37.210Z,7.93
2023-04-19T18:03:40.367Z,7.93
2023-04-19T18:06:44.927Z,7.43
2023-04-19T18:09:48.794Z,7.80
2023-04-19T18:12:51.817Z,7.60
2023-04-19T18:15:54.929Z,7.30
2023-04-19T18:18:58.090Z,8.10
2023-04-19T18:22:02.658Z,8.20
2023-04-19T18:25:06.317Z,8.73
2023-04-19T18:28:09.291Z,8.30
2023-04-19T18:31:12.369Z,8.97
2023-04-19T18:34:15.649Z,8.37
2023-04-19T18:37:20.089Z,7.90
2023-04-19T18:40:23.158Z,7.83
2023-04-19T18:43:28.258Z,7.33
2023-04-19T18:46:31.459Z,7.60
2023-04-19T18:49:34.713Z,8.67
2023-04-19T18:52:39.172Z,8.20
2023-04-19T18:55:42.233Z,8.40
2023-04-19T18:58:46.344Z,8.97
2023-04-19T19:01:50.909Z,9.30
2023-04-19T19:04:58.587Z,9.47
2023-04-19T19:08:06.857Z,11.50
2023-04-19T19:11:32.913Z,10.97
2023-04-19T19:14:35.772Z,8.40
2023-04-19T19:17:39.000Z,8.20
2023-04-19T19:20:42.123Z,7.97
2023-04-19T19:23:46.521Z,7.77
2023-04-19T19:26:50.027Z,6.83
2023-04-19T19:29:53.074Z,7.87
2023-04-19T19:32:56.131Z,6.60
2023-04-19T19:35:59.764Z,8.53
2023-04-19T19:39:04.420Z,7.10
2023-04-19T19:42:08.202Z,6.80
2023-04-19T19:45:12.483Z,7.70
2023-04-19T19:48:15.682Z,7.90
2023-04-19T19:51:41.784Z,8.93
2023-04-19T19:54:43.294Z,8.20
2023-04-19T20:00:52.884Z,9.47
2023-04-19T20:03:56.975Z,8.90
2023-04-19T20:10:10.061Z,11.03
2023-04-19T20:13:13.469Z,10.17
2023-04-19T20:16:18.822Z,9.97
2023-04-19T20:19:21.955Z,10.20
2023-04-19T20:22:25.055Z,9.87
2023-04-19T20:25:31.214Z,10.47
2023-04-19T20:28:35.177Z,10.53
2023-04-19T20:31:38.249Z,11.23
2023-04-19T20:34:41.299Z,10.97
2023-04-19T20:37:44.545Z,10.13
2023-04-19T20:40:49.026Z,10.27
2023-04-19T20:43:52.031Z,10.10
2023-04-19T20:46:56.275Z,10.40
2023-04-19T20:49:59.339Z,9.43
2023-04-19T20:53:02.354Z,10.57
2023-04-19T20:56:06.908Z,10.07
2023-04-19T20:59:10.285Z,9.87
2023-04-19T21:02:13.419Z,9.50
2023-04-19T21:05:16.558Z,9.70
2023-04-19T21:08:19.575Z,9.47
2023-04-19T21:11:24.135Z,9.93
2023-04-19T21:14:27.512Z,10.30
2023-04-19T21:17:30.643Z,10.93
2023-04-19T21:20:34.018Z,10.80
2023-04-19T21:23:38.689Z,12.87
2023-04-19T21:26:43.193Z,13.00
2023-04-19T21:29:46.213Z,13.10
2023-04-19T21:32:49.454Z,13.37
2023-04-19T21:35:52.606Z,13.43
2023-04-19T21:38:55.890Z,13.50
2023-04-19T21:42:00.419Z,13.97
2023-04-19T21:45:03.758Z,13.73
2023-04-19T21:48:07.416Z,13.33
2023-04-19T21:51:10.567Z,15.13
2023-04-19T21:54:23.178Z,14.93
2023-04-19T21:57:35.475Z,14.03
2023-04-19T22:00:39.557Z,13.00
2023-04-19T22:03:42.859Z,14.00
2023-04-19T22:06:46.815Z,14.20
2023-04-19T22:09:50.533Z,13.97
2023-04-19T22:13:02.792Z,13.63
2023-04-19T22:16:06.782Z,14.17
2023-04-19T22:19:11.224Z,13.40
2023-04-19T22:22:15.114Z,14.00
2023-04-19T22:25:19.008Z,13.13
2023-04-19T22:28:24.221Z,14.23
2023-04-19T22:31:27.961Z,13.33
2023-04-19T22:34:33.460Z,13.50
2023-04-19T22:37:37.056Z,13.07
2023-04-19T22:40:46.558Z,12.80
2023-04-19T22:43:59.446Z,12.00
2023-04-19T22:47:07.941Z,12.73
2023-04-19T22:50:13.834Z,11.90
2023-04-19T22:53:19.929Z,12.87
2023-04-19T22:56:26.059Z,11.40
2023-04-19T22:59:36.592Z,11.63
2023-04-19T23:02:43.100Z,11.13
2023-04-19T23:05:49.463Z,11.50
2023-04-19T23:08:52.983Z,11.10
2023-04-19T23:11:56.091Z,10.80
2023-04-19T23:15:00.635Z,11.03
2023-04-19T23:18:03.990Z,10.43
2023-04-19T23:21:07.757Z,10.90
2023-04-19T23:24:11.292Z,11.03
2023-04-19T23:27:14.438Z,10.60
2023-04-19T23:30:19.514Z,10.23
2023-04-19T23:33:22.686Z,10.00
2023-04-19T23:36:26.507Z,10.43
2023-04-19T23:39:29.734Z,10.10
2023-04-19T23:42:32.877Z,11.80
2023-04-19T23:45:37.413Z,11.60
2023-04-19T23:48:40.597Z,12.77
2023-04-19T23:51:43.738Z,12.10
2023-04-19T23:54:46.851Z,12.50
2023-04-19T23:57:50.054Z,12.30
